Time;durP1;ratioP1;P1;durP2;ratioP2;P2;SDS_P1;SDS_P2;PMS_P1;PMS_P2;Temp;Humidity;BMP_temperature;BMP_pressure;BME280_temperature;BME280_humidity;BME280_pressure;Samples;Min_cycle;Max_cycle;Signal;HPM_P1;HPM_P2
2022/07/21 00:01:09;;;;;;;3.77;1.05;;;;;;;14.44;100.00;99555.91;1701987;84;21074;-72
2022/07/21 00:03:36;;;;;;;2.40;0.93;;;;;;;14.40;100.00;99560.36;1728770;82;21510;-72
2022/07/21 00:06:03;;;;;;;5.00;0.98;;;;;;;14.40;100.00;99554.06;1735001;82;21051;-71
2022/07/21 00:08:30;;;;;;;4.05;0.95;;;;;;;14.38;100.00;99557.67;1702722;82;21419;-72
2022/07/21 00:10:56;;;;;;;4.10;1.00;;;;;;;14.31;100.00;99562.12;1758553;80;21054;-70
2022/07/21 00:13:24;;;;;;;4.20;1.00;;;;;;;14.28;100.00;99559.16;1740412;82;21071;-71
2022/07/21 00:15:52;;;;;;;4.87;1.25;;;;;;;14.21;100.00;99562.84;1740220;82;21078;-72
2022/07/21 00:18:19;;;;;;;3.90;0.98;;;;;;;14.25;100.00;99558.41;1737355;82;20975;-71
2022/07/21 00:20:45;;;;;;;3.72;1.00;;;;;;;14.26;100.00;99574.55;1739824;82;21086;-71
2022/07/21 00:23:12;;;;;;;3.15;1.00;;;;;;;14.23;100.00;99565.56;1740444;82;21047;-71
2022/07/21 00:25:39;;;;;;;3.12;1.15;;;;;;;14.16;100.00;99562.95;1734993;82;21066;-70
2022/07/21 00:28:06;;;;;;;3.98;1.20;;;;;;;14.11;100.00;99570.69;1734226;82;21055;-72
2022/07/21 00:30:32;;;;;;;;;;;;;;;14.04;100.00;99568.88;1743442;82;21011;-69
2022/07/21 00:32:59;;;;;;;4.75;1.40;;;;;;;14.03;100.00;99570.56;1704240;82;20089;-69
2022/07/21 00:35:25;;;;;;;4.20;1.40;;;;;;;13.97;100.00;99572.55;1745816;82;21418;-69
2022/07/21 00:37:52;;;;;;;4.67;1.55;;;;;;;13.93;100.00;99575.07;1731714;82;21572;-70
2022/07/21 00:40:18;;;;;;;2.42;1.40;;;;;;;13.86;100.00;99578.73;1731474;82;20979;-70
2022/07/21 00:42:45;;;;;;;6.03;1.70;;;;;;;13.79;100.00;99577.48;1730863;82;21066;-70
2022/07/21 00:45:12;;;;;;;4.70;1.52;;;;;;;13.75;100.00;99570.97;1749271;82;21478;-70
2022/07/21 00:47:38;;;;;;;;;;;;;;;13.76;100.00;99575.34;1742009;82;21047;-70
2022/07/21 00:50:11;;;;;;;5.17;1.67;;;;;;;13.72;100.00;99574.30;1736342;82;20131;-70
2022/07/21 00:52:40;;;;;;;2.70;1.52;;;;;;;13.59;100.00;99570.40;1737282;82;21078;-69
2022/07/21 00:55:09;;;;;;;3.72;1.65;;;;;;;13.51;100.00;99573.78;1738612;82;20968;-69
2022/07/21 00:57:35;;;;;;;6.25;1.60;;;;;;;13.46;100.00;99571.92;1739511;82;21079;-69
2022/07/21 01:00:05;;;;;;;3.98;1.50;;;;;;;13.43;100.00;99570.34;1736990;82;20996;-70
2022/07/21 01:02:36;;;;;;;5.90;1.40;;;;;;;13.45;100.00;99574.97;1735005;82;21667;-69
2022/07/21 01:05:00;;;;;;;4.05;1.60;;;;;;;13.46;100.00;99582.08;1734738;82;20979;-70
2022/07/21 01:07:27;;;;;;;4.35;1.52;;;;;;;13.46;100.00;99584.81;1726511;82;21067;-69
2022/07/21 01:09:55;;;;;;;2.95;1.50;;;;;;;13.40;100.00;99579.95;1736496;82;21031;-71
2022/07/21 01:12:22;;;;;;;3.52;1.50;;;;;;;13.34;100.00;99573.48;1737921;82;21449;-69
2022/07/21 01:14:48;;;;;;;6.00;1.40;;;;;;;13.30;100.00;99575.17;1742945;82;21560;-71
2022/07/21 01:17:15;;;;;;;4.10;1.17;;;;;;;13.29;100.00;99571.62;1736010;82;21078;-70
2022/07/21 01:19:43;;;;;;;4.22;1.30;;;;;;;13.31;100.00;99565.87;1737945;82;21027;-70
2022/07/21 01:22:11;;;;;;;6.00;1.50;;;;;;;13.31;100.00;99563.14;1738137;82;21062;-70
2022/07/21 01:24:37;;;;;;;6.12;1.60;;;;;;;13.28;100.00;99568.64;1732309;82;21548;-70
2022/07/21 01:27:04;;;;;;;6.40;1.80;;;;;;;13.22;100.00;99564.33;1743777;82;21055;-70
2022/07/21 01:29:31;;;;;;;7.22;2.17;;;;;;;13.16;100.00;99560.05;1742895;82;21031;-70
2022/07/21 01:31:57;;;;;;;6.97;1.90;;;;;;;13.10;100.00;99554.39;1732460;82;21548;-69
2022/07/21 01:34:24;;;;;;;;;;;;;;;13.08;100.00;99562.56;1744240;82;21002;-69
2022/07/21 01:36:50;;;;;;;4.33;1.50;;;;;;;13.10;100.00;99559.86;1726523;82;20109;-75
2022/07/21 01:42:03;;;;;;;4.55;1.65;;;;;;;12.96;100.00;99564.37;1729278;82;21573;-74
2022/07/21 01:44:29;;;;;;;2.22;1.17;;;;;;;12.92;100.00;99570.15;1743793;82;21800;-75
2022/07/21 01:46:56;;;;;;;3.30;1.40;;;;;;;12.92;100.00;99564.14;1726810;81;21545;-74
2022/07/21 01:49:22;;;;;;;;;;;;;;;12.93;100.00;99554.81;1740153;82;21026;-75
2022/07/21 01:51:49;;;;;;;2.25;1.27;;;;;;;12.95;100.00;99551.80;1746752;82;20138;-74
2022/07/21 01:54:16;;;;;;;3.92;1.20;;;;;;;12.91;100.00;99565.23;1738685;82;21015;-75
2022/07/21 01:56:42;;;;;;;;;;;;;;;12.89;100.00;99563.33;1742402;82;21703;-75
2022/07/21 01:59:08;;;;;;;6.12;1.52;;;;;;;12.84;100.00;99562.58;1739823;82;20432;-75
2022/07/21 02:01:34;;;;;;;4.10;1.50;;;;;;;12.72;100.00;99560.80;1735447;82;21054;-75
2022/07/21 02:04:02;;;;;;;5.42;1.47;;;;;;;12.69;100.00;99554.55;1737939;82;21462;-74
2022/07/21 02:06:29;;;;;;;4.78;1.50;;;;;;;12.67;100.00;99559.50;1735756;82;21126;-75
2022/07/21 02:08:55;;;;;;;2.85;1.30;;;;;;;12.70;100.00;99559.73;1742842;82;21055;-75
2022/07/21 02:11:22;;;;;;;4.55;1.50;;;;;;;12.72;100.00;99562.16;1739441;82;21565;-74
2022/07/21 02:13:49;;;;;;;;;;;;;;;12.72;100.00;99562.16;1727467;82;21633;-75
2022/07/21 02:16:15;;;;;;;3.27;1.37;;;;;;;12.68;100.00;99555.67;1733337;82;20124;-75
2022/07/21 02:18:41;;;;;;;3.90;1.70;;;;;;;12.55;100.00;99557.16;1727681;82;21616;-75
2022/07/21 02:21:09;;;;;;;2.95;1.30;;;;;;;12.56;100.00;99558.80;1738252;82;21067;-74
2022/07/21 02:23:36;;;;;;;;;;;;;;;12.62;100.00;99555.45;1741439;82;21086;-74
2022/07/21 02:26:02;;;;;;;3.20;1.40;;;;;;;12.60;100.00;99557.13;1745449;82;20111;-74
2022/07/21 02:28:30;;;;;;;5.83;1.65;;;;;;;12.48;100.00;99553.41;1733839;82;21533;-74
2022/07/21 02:30:57;;;;;;;3.67;1.50;;;;;;;12.45;100.00;99558.08;1729774;82;21031;-71
2022/07/21 02:33:24;;;;;;;5.42;1.87;;;;;;;12.45;100.00;99553.98;1727669;82;21513;-71
2022/07/21 02:35:51;;;;;;;5.78;1.90;;;;;;;12.48;100.00;99545.22;1733455;82;21421;-71
2022/07/21 02:38:17;;;;;;;4.40;1.80;;;;;;;12.51;100.00;99557.47;1739417;82;21034;-71
2022/07/21 02:40:43;;;;;;;3.15;1.22;;;;;;;12.53;100.00;99545.72;1738463;82;20986;-71
2022/07/21 02:43:10;;;;;;;;;;;;;;;12.50;100.00;99540.84;1734542;82;20976;-72
2022/07/21 02:45:37;;;;;;;2.05;1.60;;;;;;;12.50;100.00;99547.67;1736859;82;20138;-69
2022/07/21 02:48:07;;;;;;;4.37;1.92;;;;;;;12.42;100.00;99547.74;1707536;82;21090;-72
2022/07/21 02:50:35;;;;;;;3.77;1.70;;;;;;;12.44;100.00;99554.27;1736904;82;21050;-72
2022/07/21 02:53:05;;;;;;;5.10;2.12;;;;;;;12.50;100.00;99549.03;1716475;82;21055;-73
2022/07/21 02:55:32;;;;;;;3.05;2.15;;;;;;;12.53;100.00;99551.73;1723327;82;20992;-73
2022/07/21 02:58:19;;;;;;;3.85;2.05;;;;;;;12.53;100.00;99544.36;1695420;84;21090;-73
2022/07/21 03:00:54;;;;;;;6.28;1.77;;;;;;;12.53;100.00;99542.99;1723830;82;21466;-72
2022/07/21 03:03:22;;;;;;;5.22;1.77;;;;;;;12.59;100.00;99542.38;1724621;82;21036;-71
2022/07/21 03:05:49;;;;;;;6.17;1.80;;;;;;;12.66;100.00;99545.03;1725570;82;21003;-71
2022/07/21 03:08:17;;;;;;;3.17;1.77;;;;;;;12.69;100.00;99541.71;1721508;82;20972;-71
2022/07/21 03:10:43;;;;;;;;;;;;;;;12.70;100.00;99545.27;1726236;82;21517;-70
2022/07/21 03:13:10;;;;;;;6.20;2.10;;;;;;;12.73;100.00;99544.68;1730143;82;20113;-70
2022/07/21 03:15:38;;;;;;;4.22;1.55;;;;;;;12.69;100.00;99543.08;1739445;81;20972;-70
2022/07/21 03:18:05;;;;;;;4.78;1.42;;;;;;;12.74;100.00;99537.57;1721841;82;21515;-70
2022/07/21 03:20:34;;;;;;;10.18;1.57;;;;;;;12.84;100.00;99539.36;1726357;82;21504;-69
2022/07/21 03:23:02;;;;;;;4.83;1.60;;;;;;;12.89;100.00;99530.54;1725590;82;21593;-70
2022/07/21 03:25:29;;;;;;;4.35;1.32;;;;;;;12.93;100.00;99528.08;1725232;82;21518;-70
2022/07/21 03:27:55;;;;;;;;;;;;;;;12.97;100.00;99524.44;1714895;82;21181;-70
2022/07/21 03:30:24;;;;;;;5.47;1.35;;;;;;;13.02;100.00;99527.67;1724620;82;20140;-69
2022/07/21 03:32:51;;;;;;;4.30;1.40;;;;;;;13.03;100.00;99529.30;1721810;82;21110;-71
2022/07/21 03:35:17;;;;;;;4.10;1.30;;;;;;;13.11;100.00;99530.03;1717542;82;21077;-70
2022/07/21 03:37:57;;;;;;;5.42;1.92;;;;;;;13.15;100.00;99521.51;1732785;82;21134;-70
2022/07/21 03:40:25;;;;;;;2.42;1.30;;;;;;;13.20;100.00;99517.35;1714934;82;21054;-70
2022/07/21 03:42:54;;;;;;;3.30;1.20;;;;;;;13.35;100.00;99521.80;1724516;82;21058;-70
2022/07/21 03:45:21;;;;;;;3.92;1.20;;;;;;;13.62;100.00;99522.48;1721471;82;20996;-70
2022/07/21 03:47:47;;;;;;;5.05;1.42;;;;;;;13.87;100.00;99518.81;1722454;82;21549;-70
2022/07/21 03:50:18;;;;;;;2.77;1.37;;;;;;;14.16;100.00;99530.92;1675564;84;21055;-70
2022/07/21 03:52:45;;;;;;;2.67;1.30;;;;;;;14.47;100.00;99520.80;1688927;83;21099;-70
2022/07/21 03:58:01;;;;;;;;;;;;;;;15.14;100.00;99530.97;1699012;84;21089;-67
2022/07/21 04:00:39;;;;;;;2.83;1.05;;;;;;;15.43;100.00;99518.27;1676284;84;20183;-67
2022/07/21 04:03:05;;;;;;;4.50;1.10;;;;;;;15.54;100.00;99512.84;1688737;84;21009;-67
2022/07/21 04:05:34;;;;;;;3.27;1.10;;;;;;;15.83;100.00;99517.92;1701350;84;21098;-67
2022/07/21 04:08:00;;;;;;;4.83;1.17;;;;;;;16.16;100.00;99505.53;1703681;84;21670;-68
2022/07/21 04:10:29;;;;;;;4.65;1.07;;;;;;;16.49;100.00;99500.55;1703166;84;21042;-68
2022/07/21 04:12:58;;;;;;;2.12;0.75;;;;;;;16.85;100.00;99509.47;1691225;84;21128;-67
2022/07/21 04:15:26;;;;;;;3.05;0.78;;;;;;;17.19;100.00;99493.61;1697832;83;21067;-67
2022/07/21 04:17:52;;;;;;;2.33;0.75;;;;;;;17.43;100.00;99501.39;1681254;84;21065;-67
2022/07/21 04:20:19;;;;;;;2.17;0.70;;;;;;;17.73;100.00;99502.42;1675597;85;21006;-66
2022/07/21 04:22:47;;;;;;;4.47;0.95;;;;;;;17.98;100.00;99499.41;1690461;84;21658;-70
2022/07/21 04:25:14;;;;;;;1.55;0.70;;;;;;;18.07;100.00;99496.05;1699732;84;21033;-70
2022/07/21 04:27:41;;;;;;;2.15;0.70;;;;;;;18.19;100.00;99490.13;1702252;84;21050;-66
2022/07/21 04:30:10;;;;;;;1.22;0.70;;;;;;;18.32;100.00;99484.98;1694920;84;21048;-67
2022/07/21 04:32:37;;;;;;;6.97;1.10;;;;;;;18.31;100.00;99479.25;1694676;84;21092;-67
2022/07/21 04:35:06;;;;;;;3.22;0.80;;;;;;;18.25;100.00;99473.66;1679730;84;21069;-66
2022/07/21 04:37:33;;;;;;;3.27;0.75;;;;;;;18.26;100.00;99478.04;1675133;85;21124;-68
2022/07/21 04:40:00;;;;;;;4.78;0.80;;;;;;;18.29;100.00;99476.56;1675483;85;21543;-69
2022/07/21 04:42:27;;;;;;;3.15;0.98;;;;;;;18.42;100.00;99478.33;1690495;84;21049;-68
2022/07/21 04:44:53;;;;;;;2.60;0.70;;;;;;;18.69;100.00;99475.72;1703883;84;20950;-68
2022/07/21 04:47:20;;;;;;;4.53;0.80;;;;;;;18.76;100.00;99478.77;1702423;84;21575;-68
2022/07/21 04:49:46;;;;;;;5.20;0.85;;;;;;;18.84;100.00;99478.74;1690998;84;21072;-69
2022/07/21 04:52:13;;;;;;;6.75;0.75;;;;;;;19.14;100.00;99480.09;1698891;84;21081;-67
2022/07/21 04:54:39;;;;;;;5.03;0.70;;;;;;;19.45;100.00;99477.78;1701530;84;21084;-69
2022/07/21 04:57:07;;;;;;;4.72;0.80;;;;;;;19.64;100.00;99483.66;1691156;84;21670;-68
2022/07/21 04:59:34;;;;;;;2.15;0.82;;;;;;;19.74;100.00;99484.63;1685183;85;21063;-68
2022/07/21 05:02:01;;;;;;;2.08;0.53;;;;;;;19.84;100.00;99484.20;1672238;85;21115;-69
2022/07/21 05:04:27;;;;;;;3.70;0.80;;;;;;;19.98;100.00;99483.91;1679982;85;20988;-69
2022/07/21 05:06:54;;;;;;;3.58;0.85;;;;;;;19.93;100.00;99475.84;1684750;85;21079;-68
2022/07/21 05:09:20;;;;;;;4.97;0.88;;;;;;;20.08;100.00;99479.92;1675259;85;21495;-68
2022/07/21 05:11:47;;;;;;;1.75;0.75;;;;;;;20.20;100.00;99480.76;1681156;85;21096;-69
2022/07/21 05:14:13;;;;;;;2.98;1.10;;;;;;;20.25;100.00;99469.50;1679820;85;21023;-69
2022/07/21 05:16:41;;;;;;;2.40;0.90;;;;;;;20.43;100.00;99475.67;1639102;85;21040;-67
2022/07/21 05:19:08;;;;;;;3.65;0.68;;;;;;;20.35;100.00;99472.42;1686571;85;20988;-66
2022/07/21 05:21:34;;;;;;;2.33;0.50;;;;;;;20.28;100.00;99477.70;1674962;85;21676;-67
2022/07/21 05:24:01;;;;;;;2.02;0.70;;;;;;;20.19;100.00;99477.75;1676621;85;21028;-68
2022/07/21 05:26:27;;;;;;;2.62;0.60;;;;;;;20.18;100.00;99484.45;1682842;85;21059;-68
2022/07/21 05:28:54;;;;;;;2.95;0.70;;;;;;;20.33;100.00;99475.52;1686352;85;20980;-69
2022/07/21 05:31:20;;;;;;;2.90;0.60;;;;;;;20.56;100.00;99483.39;1670127;85;21844;-67
2022/07/21 05:33:47;;;;;;;2.22;0.65;;;;;;;20.67;100.00;99472.93;1694257;84;21009;-65
2022/07/21 05:36:14;;;;;;;6.25;0.72;;;;;;;20.74;100.00;99475.93;1686809;84;21094;-67
2022/07/21 05:38:40;;;;;;;2.00;0.57;;;;;;;20.91;100.00;99473.50;1677689;85;20986;-67
2022/07/21 05:41:08;;;;;;;5.53;0.72;;;;;;;21.18;100.00;99464.53;1663403;85;21093;-68
2022/07/21 05:43:35;;;;;;;1.45;0.50;;;;;;;21.38;100.00;99459.98;1671111;85;20994;-70
2022/07/21 05:46:01;;;;;;;3.15;0.60;;;;;;;21.56;100.00;99460.51;1678502;85;21062;-67
2022/07/21 05:48:28;;;;;;;2.15;0.60;;;;;;;21.61;100.00;99461.05;1687468;85;21073;-68
2022/07/21 05:50:54;;;;;;;2.98;0.60;;;;;;;21.64;100.00;99462.34;1691640;85;21106;-67
2022/07/21 05:53:22;;;;;;;2.10;0.60;;;;;;;21.68;100.00;99464.64;1686109;85;21050;-67
2022/07/21 05:55:48;;;;;;;3.70;0.55;;;;;;;21.65;100.00;99469.47;1684933;85;20991;-67
2022/07/21 05:58:16;;;;;;;1.02;0.53;;;;;;;21.69;100.00;99464.27;1700774;82;21454;-67
2022/07/21 06:00:43;;;;;;;4.62;0.65;;;;;;;21.75;100.00;99456.53;1714131;84;20986;-68
2022/07/21 06:03:09;;;;;;;5.67;0.68;;;;;;;21.76;100.00;99463.08;1705995;82;21598;-68
2022/07/21 06:05:35;;;;;;;4.22;0.62;;;;;;;21.80;100.00;99459.03;1714060;83;21517;-69
2022/07/21 06:08:02;;;;;;;2.47;0.50;;;;;;;21.92;100.00;99465.14;1699762;82;21027;-69
2022/07/21 06:10:29;;;;;;;2.42;0.50;;;;;;;21.95;100.00;99458.31;1711486;83;21042;-68
2022/07/21 06:12:57;;;;;;;2.62;0.55;;;;;;;21.97;100.00;99453.20;1720002;82;21098;-68
2022/07/21 06:15:24;;;;;;;3.12;0.50;;;;;;;22.04;100.00;99458.94;1718237;83;20994;-70
2022/07/21 06:17:52;;;;;;;0.90;0.40;;;;;;;22.07;100.00;99460.22;1714793;83;21518;-68
2022/07/21 06:20:19;;;;;;;1.40;0.53;;;;;;;22.22;100.00;99461.62;1712401;83;21004;-68
2022/07/21 06:22:46;;;;;;;3.40;0.62;;;;;;;22.50;100.00;99458.78;1716201;82;21106;-68
2022/07/21 06:25:13;;;;;;;2.02;0.40;;;;;;;22.50;100.00;99458.78;1711669;83;20995;-69
2022/07/21 06:27:40;;;;;;;3.00;0.65;;;;;;;22.81;100.00;99460.18;1712362;82;21102;-69
2022/07/21 06:30:08;;;;;;;4.33;0.75;;;;;;;22.97;100.00;99464.34;1717011;83;21028;-68
2022/07/21 06:32:35;;;;;;;1.20;0.40;;;;;;;22.98;100.00;99459.02;1710900;83;21082;-66
2022/07/21 06:35:01;;;;;;;3.70;0.40;;;;;;;22.91;100.00;99457.46;1697166;84;21037;-68
2022/07/21 06:37:28;;;;;;;1.57;0.40;;;;;;;22.90;100.00;99452.26;1708309;82;21074;-68
2022/07/21 06:39:56;;;;;;;5.12;0.50;;;;;;;22.93;100.00;99457.09;1712582;82;21024;-68
2022/07/21 06:42:22;;;;;;;3.75;0.40;;;;;;;23.10;100.00;99453.34;1736065;82;21030;-70
2022/07/21 06:44:49;;;;;;;2.30;0.30;;;;;;;23.24;100.00;99455.62;1713600;83;21057;-67
2022/07/21 06:47:16;;;;;;;4.58;0.40;;;;;;;23.39;92.48;99438.12;1714442;84;21121;-68
2022/07/21 06:49:43;;;;;;;4.33;0.50;;;;;;;23.25;95.76;99444.17;1717175;82;21109;-68
2022/07/21 06:52:09;;;;;;;1.12;0.30;;;;;;;23.24;98.34;99438.97;1685966;84;21059;-67
2022/07/21 06:54:36;;;;;;;3.02;0.60;;;;;;;23.20;100.00;99436.72;1695453;84;21105;-69
2022/07/21 06:57:04;;;;;;;18.55;6.10;;;;;;;23.24;100.00;99437.58;1699025;84;21134;-68
2022/07/21 06:59:30;;;;;;;3.70;0.40;;;;;;;23.47;100.00;99439.92;1677947;84;20993;-68
2022/07/21 07:01:58;;;;;;;2.55;0.45;;;;;;;23.84;93.14;99430.56;1683558;84;21066;-68
2022/07/21 07:04:25;;;;;;;3.50;0.70;;;;;;;23.72;82.46;99427.34;1700048;83;20987;-66
2022/07/21 07:06:53;;;;;;;2.77;0.40;;;;;;;23.55;89.65;99429.19;1698776;84;21135;-70
2022/07/21 07:09:20;;;;;;;1.70;0.40;;;;;;;23.46;82.82;99429.16;1693517;82;21518;-67
2022/07/21 07:11:51;;;;;;;2.60;0.45;;;;;;;23.20;90.51;99427.00;1696342;84;21069;-69
2022/07/21 07:14:18;;;;;;;4.35;0.50;;;;;;;23.22;100.00;99427.43;1706426;82;21446;-68
2022/07/21 07:16:47;;;;;;;3.45;0.68;;;;;;;23.30;95.69;99425.84;1712573;82;21109;-67
2022/07/21 07:19:15;;;;;;;3.05;0.40;;;;;;;23.21;91.00;99431.36;1692316;83;21024;-68
2022/07/21 07:21:42;;;;;;;4.37;0.72;;;;;;;23.03;89.59;99416.27;1699218;84;21029;-68
2022/07/21 07:24:09;;;;;;;2.20;0.50;;;;;;;22.95;100.00;99429.21;1699439;83;21065;-69
2022/07/21 07:26:35;;;;;;;4.08;0.90;;;;;;;23.20;100.00;99418.67;1696710;84;21907;-67
2022/07/21 07:29:02;;;;;;;62.70;23.02;;;;;;;23.50;100.00;99425.88;1696568;83;21061;-68
2022/07/21 07:31:29;;;;;;;2.72;0.50;;;;;;;23.55;97.67;99408.92;1712444;84;21118;-69
2022/07/21 07:33:59;;;;;;;3.30;0.78;;;;;;;23.57;91.99;99413.52;1670570;85;21094;-69
2022/07/21 07:36:26;;;;;;;7.62;1.07;;;;;;;23.57;89.40;99424.05;1693741;83;21050;-69
2022/07/21 07:38:52;;;;;;;2.55;0.40;;;;;;;23.50;86.64;99419.73;1684669;83;21070;-66
2022/07/21 07:41:21;;;;;;;11.83;4.10;;;;;;;23.47;86.96;99416.30;1709560;84;21605;-67
2022/07/21 07:43:47;;;;;;;2.37;0.45;;;;;;;23.58;84.38;99408.19;1716491;82;20959;-68
2022/07/21 07:46:14;;;;;;;3.77;0.40;;;;;;;23.66;80.90;99411.34;1705540;84;21149;-67
2022/07/21 07:48:41;;;;;;;5.83;0.60;;;;;;;23.67;76.98;99401.23;1706719;82;21442;-66
2022/07/21 07:51:09;;;;;;;1.98;0.40;;;;;;;23.67;78.45;99400.42;1702984;84;21042;-66
2022/07/21 07:53:36;;;;;;;3.83;0.40;;;;;;;23.69;75.28;99409.22;1702300;82;21037;-67
2022/07/21 07:56:05;;;;;;;3.02;0.40;;;;;;;23.68;74.17;99399.27;1686090;83;21605;-68
2022/07/21 07:58:31;;;;;;;1.85;0.40;;;;;;;23.72;74.70;99401.53;1690194;82;21099;-67
2022/07/21 08:00:57;;;;;;;2.87;0.30;;;;;;;23.82;81.12;99402.32;1714033;83;22086;-67
2022/07/21 08:03:25;;;;;;;2.35;0.30;;;;;;;23.97;76.91;99402.00;1690173;82;21050;-67
2022/07/21 08:07:38;;;;;;;2.75;0.45;;;;;;;24.32;81.11;99391.55;1782075;79;23300;-66
2022/07/21 08:10:08;;;;;;;3.12;0.35;;;;;;;24.48;83.77;99390.04;1752620;80;21368;-67
2022/07/21 08:12:35;;;;;;;4.70;0.50;;;;;;;24.68;68.99;99393.75;1745485;81;21051;-67
2022/07/21 08:15:02;;;;;;;2.95;0.47;;;;;;;24.60;63.46;99381.47;1727814;80;21053;-67
2022/07/21 08:17:28;;;;;;;3.17;0.40;;;;;;;24.38;65.65;99389.25;1722128;82;21047;-67
2022/07/21 08:19:56;;;;;;;2.98;0.35;;;;;;;24.29;63.95;99386.73;1732991;80;21015;-68
2022/07/21 08:22:23;;;;;;;4.22;0.35;;;;;;;24.23;68.19;99379.27;1722145;82;21553;-67
2022/07/21 08:24:49;;;;;;;2.62;0.20;;;;;;;24.31;65.17;99382.17;1722430;83;21003;-66
2022/07/21 08:27:16;;;;;;;2.15;0.70;;;;;;;24.19;63.95;99383.19;1734378;82;21042;-67
2022/07/21 08:29:42;;;;;;;2.35;0.50;;;;;;;24.03;64.32;99384.65;1751294;82;20971;-67
2022/07/21 08:32:09;;;;;;;2.75;0.40;;;;;;;23.81;66.69;99379.86;1752360;81;21027;-65
2022/07/21 08:34:36;;;;;;;3.40;0.30;;;;;;;23.69;67.98;99370.31;1752562;82;20982;-67
2022/07/21 08:37:02;;;;;;;2.27;0.40;;;;;;;23.63;71.24;99372.56;1750535;82;21043;-68
2022/07/21 08:39:29;;;;;;;1.32;0.30;;;;;;;23.57;70.56;99369.88;1749640;82;21010;-67
2022/07/21 08:41:55;;;;;;;6.53;0.50;;;;;;;23.37;70.42;99372.42;1752455;82;21082;-67
2022/07/21 08:44:22;;;;;;;2.85;0.45;;;;;;;23.15;76.34;99367.00;1752564;82;21058;-67
2022/07/21 08:46:50;;;;;;;7.20;0.60;;;;;;;23.28;85.49;99366.27;1750405;82;21572;-68
2022/07/21 08:49:22;;;;;;;2.92;0.60;;;;;;;23.53;85.17;99359.27;1742556;82;21003;-67
2022/07/21 08:51:51;;;;;;;2.87;0.40;;;;;;;23.85;85.75;99350.73;1722629;82;21024;-66
2022/07/21 08:54:20;;;;;;;1.15;0.40;;;;;;;24.20;72.66;99340.27;1722771;83;21022;-67
2022/07/21 08:56:47;;;;;;;1.95;0.60;;;;;;;24.35;72.05;99358.81;1732090;82;21549;-68
2022/07/21 08:59:14;;;;;;;1.98;0.40;;;;;;;24.39;66.90;99343.57;1752187;82;20991;-67
2022/07/21 09:01:40;;;;;;;2.98;0.50;;;;;;;24.43;68.87;99357.77;1752242;82;21102;-68
2022/07/21 09:04:32;;;;;;;2.05;0.40;;;;;;;24.42;67.68;99343.63;1733584;82;21027;-67
2022/07/21 09:07:06;;;;;;;4.30;0.40;;;;;;;24.46;66.63;99343.10;1725457;82;21641;-68
2022/07/21 09:09:34;;;;;;;2.58;0.45;;;;;;;24.38;68.18;99353.08;1722964;83;21082;-67
2022/07/21 09:12:01;;;;;;;2.17;0.57;;;;;;;24.35;74.78;99340.73;1723052;83;21488;-67
2022/07/21 09:14:32;;;;;;;4.25;0.40;;;;;;;24.38;66.53;99337.78;1746874;82;21502;-66
2022/07/21 09:17:03;;;;;;;2.00;0.42;;;;;;;24.30;69.49;99343.04;1752810;82;21019;-67
2022/07/21 09:19:33;;;;;;;1.00;0.40;;;;;;;24.33;75.35;99333.95;1748125;82;21510;-67
2022/07/21 09:22:04;;;;;;;2.33;0.60;;;;;;;24.35;78.29;99331.58;1751831;82;21582;-66
2022/07/21 09:24:39;;;;;;;1.22;0.40;;;;;;;24.38;75.53;99341.38;1752553;82;20967;-67
2022/07/21 09:27:18;;;;;;;3.37;0.40;;;;;;;24.35;74.93;99317.67;1751694;82;21043;-66
2022/07/21 09:29:50;;;;;;;1.45;0.30;;;;;;;24.31;79.23;99325.96;1752400;82;21074;-66
2022/07/21 09:32:23;;;;;;;2.12;0.57;;;;;;;24.34;78.00;99326.59;1750098;82;21063;-66
2022/07/21 09:34:53;;;;;;;1.32;0.50;;;;;;;24.36;76.21;99315.92;1752486;82;21047;-67
2022/07/21 09:37:21;;;;;;;2.25;0.45;;;;;;;24.34;78.81;99321.66;1751629;82;21063;-66
2022/07/21 09:39:59;;;;;;;2.47;0.42;;;;;;;24.33;73.91;99313.89;1752699;82;21002;-66
2022/07/21 09:42:37;;;;;;;2.95;0.53;;;;;;;24.15;72.96;99313.60;1750968;82;21047;-66
2022/07/21 09:45:13;;;;;;;3.92;1.35;;;;;;;24.02;77.41;99313.52;1752852;82;20999;-66
2022/07/21 09:47:40;;;;;;;7.47;1.02;;;;;;;23.96;80.73;99302.52;1752532;82;21616;-66
2022/07/21 09:50:10;;;;;;;1.37;0.60;;;;;;;24.07;79.94;99304.89;1752372;82;21066;-67
2022/07/21 09:52:41;;;;;;;2.08;0.70;;;;;;;24.07;79.94;99304.89;1747011;82;21624;-67
2022/07/21 09:55:14;;;;;;;2.20;0.60;;;;;;;24.03;73.54;99292.09;1752536;82;21015;-66
2022/07/21 09:57:41;;;;;;;2.92;0.60;;;;;;;24.01;78.50;99295.27;1750517;82;21093;-68
2022/07/21 10:00:12;;;;;;;2.65;0.57;;;;;;;24.12;88.13;99275.39;1752641;82;22042;-68
2022/07/21 10:02:39;;;;;;;2.60;0.50;;;;;;;24.24;81.89;99286.91;1752558;82;21095;-64
2022/07/21 10:05:11;;;;;;;2.10;0.60;;;;;;;24.30;74.46;99281.27;1752780;82;20971;-66
2022/07/21 10:07:42;;;;;;;2.50;0.50;;;;;;;24.25;78.21;99272.64;1740746;81;21043;-68
2022/07/21 10:10:09;;;;;;;2.25;0.60;;;;;;;24.29;78.16;99292.16;1738359;82;21011;-67
2022/07/21 10:12:37;;;;;;;4.12;1.20;;;;;;;24.29;78.16;99292.16;1738550;82;21098;-67
2022/07/21 10:15:04;;;;;;;4.20;0.68;;;;;;;24.32;81.31;99275.31;1738753;82;21375;-67
2022/07/21 10:17:31;;;;;;;3.55;0.80;;;;;;;24.32;81.31;99275.31;1737510;82;21162;-67
2022/07/21 10:20:17;;;;;;;2.35;0.90;;;;;;;24.44;81.04;99266.18;1738391;82;21067;-67
2022/07/21 10:23:20;;;;;;;1.67;0.57;;;;;;;24.61;90.65;99268.41;1738623;81;21055;-66
2022/07/21 10:25:47;;;;;;;3.10;0.60;;;;;;;24.85;76.47;99265.77;1736335;81;21731;-67
2022/07/21 10:28:23;;;;;;;3.15;0.60;;;;;;;24.87;85.31;99281.49;1729873;82;21024;-67
2022/07/21 10:30:57;;;;;;;4.30;0.60;;;;;;;24.94;78.19;99276.02;1738648;82;20971;-67
2022/07/21 10:33:50;;;;;;;4.58;0.70;;;;;;;24.90;78.19;99274.39;1736069;82;21035;-67
2022/07/21 10:36:37;;;;;;;2.70;1.17;;;;;;;24.82;77.59;99265.11;1643055;85;21066;-67
2022/07/21 10:39:16;;;;;;;4.20;0.82;;;;;;;24.82;77.59;99265.11;1701200;84;21044;-66
2022/07/21 10:41:44;;;;;;;1.05;0.50;;;;;;;24.82;80.37;99273.45;1709224;84;21130;-66
2022/07/21 10:44:35;;;;;;;3.17;0.62;;;;;;;24.88;74.96;99271.16;1718866;82;20980;-65
2022/07/21 10:47:11;;;;;;;3.25;0.80;;;;;;;24.87;74.46;99270.36;1737402;82;21542;-66
2022/07/21 10:49:46;;;;;;;2.27;0.60;;;;;;;24.84;72.31;99267.53;1738658;82;20983;-66
2022/07/21 10:52:45;;;;;;;2.20;0.57;;;;;;;24.86;75.63;99265.99;1737937;82;21050;-67
2022/07/21 10:55:17;;;;;;;3.00;1.10;;;;;;;24.96;74.86;99259.75;1737596;82;21012;-67
2022/07/21 10:57:44;;;;;;;2.58;0.65;;;;;;;24.88;70.92;99274.75;1738525;82;21055;-67
2022/07/21 11:00:28;;;;;;;2.83;0.70;;;;;;;24.77;79.25;99275.97;1738730;82;21608;-66
2022/07/21 11:03:00;;;;;;;2.72;0.80;;;;;;;24.81;75.32;99268.26;1732197;82;21043;-67
2022/07/21 11:05:30;;;;;;;2.40;0.70;;;;;;;24.92;77.73;99267.25;1736837;82;21467;-68
2022/07/21 11:08:16;;;;;;;3.75;0.80;;;;;;;25.09;76.18;99248.56;1744546;81;21094;-66
2022/07/21 11:10:49;;;;;;;1.65;0.90;;;;;;;25.20;76.66;99260.64;1725597;82;21455;-67
2022/07/21 11:13:17;;;;;;;2.55;0.70;;;;;;;25.29;76.66;99256.76;1716505;83;21082;-67
2022/07/21 11:15:58;;;;;;;4.30;1.17;;;;;;;25.35;75.25;99259.41;1717058;83;21505;-67
2022/07/21 11:18:29;;;;;;;2.15;0.95;;;;;;;25.41;76.98;99249.51;1716753;83;21098;-66
2022/07/21 11:21:14;;;;;;;2.65;0.93;;;;;;;25.51;74.30;99251.63;1733103;82;21043;-68
2022/07/21 11:23:47;;;;;;;2.75;0.78;;;;;;;25.62;80.84;99254.73;1746540;82;21075;-68
2022/07/21 11:26:19;;;;;;;3.17;0.80;;;;;;;25.82;73.84;99255.93;1746755;82;21074;-68
2022/07/21 11:28:46;;;;;;;4.90;0.82;;;;;;;25.83;72.05;99247.16;1745431;82;20996;-67
2022/07/21 11:31:20;;;;;;;2.67;1.00;;;;;;;25.82;72.94;99253.14;1717647;82;21087;-67
2022/07/21 11:33:47;;;;;;;4.72;0.70;;;;;;;25.78;71.98;99248.13;1746952;81;20960;-67
2022/07/21 11:36:31;;;;;;;2.45;0.88;;;;;;;25.82;74.51;99240.59;1746971;82;21030;-67
2022/07/21 11:39:12;;;;;;;6.17;1.35;;;;;;;25.93;78.93;99240.90;1743753;81;20960;-68
2022/07/21 11:41:40;;;;;;;4.78;1.30;;;;;;;26.08;68.94;99241.20;1745408;82;21090;-68
2022/07/21 11:44:08;;;;;;;2.10;1.00;;;;;;;26.03;69.25;99236.59;1744200;82;21435;-67
2022/07/21 11:46:50;;;;;;;2.95;1.30;;;;;;;26.01;70.02;99227.79;1716963;83;21110;-68